createdAt,value
2019-01-26T00:02:21.131Z,3.5
2019-01-26T00:05:21.997Z,3.7
2019-01-26T00:08:21.682Z,3.3
2019-01-26T00:11:21.365Z,3.6
2019-01-26T00:14:21.389Z,3.4
2019-01-26T00:17:21.800Z,3.5
2019-01-26T00:20:21.400Z,3.4
2019-01-26T00:23:21.595Z,3.5
2019-01-26T00:26:21.205Z,3.7
2019-01-26T00:29:21.368Z,3.3
2019-01-26T00:32:21.381Z,3.5
2019-01-26T00:35:21.550Z,3.5
2019-01-26T00:38:21.338Z,3.5
2019-01-26T00:41:21.318Z,3.5
2019-01-26T00:44:21.487Z,3.1
2019-01-26T00:47:21.494Z,3.4
2019-01-26T00:50:21.409Z,3.6
2019-01-26T00:53:21.136Z,3.4
2019-01-26T00:56:21.364Z,3.7
2019-01-26T00:59:21.183Z,3.6
2019-01-26T01:02:21.507Z,3.5
2019-01-26T01:05:21.346Z,3.4
2019-01-26T01:08:21.399Z,3.4
2019-01-26T01:11:21.207Z,3.6
2019-01-26T01:14:21.061Z,3.4
2019-01-26T01:17:21.037Z,3.6
2019-01-26T01:20:21.420Z,3.4
2019-01-26T01:23:21.955Z,3.5
2019-01-26T01:26:21.392Z,3.4
2019-01-26T01:29:21.303Z,3.3
2019-01-26T01:32:21.324Z,3.5
2019-01-26T01:35:21.394Z,3.6
2019-01-26T01:38:21.958Z,3.4
2019-01-26T01:41:21.509Z,3.1
2019-01-26T01:44:21.360Z,3.4
2019-01-26T01:47:21.395Z,3.3
2019-01-26T01:50:21.334Z,3.5
2019-01-26T01:53:21.271Z,3.2
2019-01-26T01:56:21.310Z,3.3
2019-01-26T01:59:21.413Z,3.3
2019-01-26T02:02:21.257Z,3.4
2019-01-26T02:05:21.760Z,3.3
2019-01-26T02:08:21.259Z,3.5
2019-01-26T02:11:21.354Z,3.2
2019-01-26T02:14:21.413Z,3.4
2019-01-26T02:17:21.566Z,3.3
2019-01-26T02:20:21.136Z,3.4
2019-01-26T02:23:21.445Z,3.5
2019-01-26T02:26:21.937Z,3.1
2019-01-26T02:29:21.225Z,3.1
2019-01-26T02:32:21.259Z,3.3
2019-01-26T02:35:21.394Z,3.2
2019-01-26T02:38:21.462Z,3
2019-01-26T02:41:24.304Z,2.9
2019-01-26T02:44:21.301Z,3.1
2019-01-26T02:47:21.624Z,3.3
2019-01-26T02:50:21.760Z,3.2
2019-01-26T02:53:21.390Z,3.3
2019-01-26T02:56:21.566Z,3.2
2019-01-26T02:59:22.014Z,3.1
2019-01-26T03:02:21.269Z,3.7
2019-01-26T03:05:21.215Z,3.1
2019-01-26T03:08:21.084Z,3.2
2019-01-26T03:11:23.060Z,3
2019-01-26T03:14:21.585Z,2.9
2019-01-26T03:17:21.597Z,3
2019-01-26T03:20:23.095Z,3.2
2019-01-26T03:23:21.685Z,2.8
2019-01-26T03:26:21.878Z,3.1
2019-01-26T03:29:21.562Z,2.9
2019-01-26T03:32:21.763Z,3.2
2019-01-26T03:35:21.400Z,3
2019-01-26T03:38:21.105Z,2.9
2019-01-26T03:41:21.202Z,3.2
2019-01-26T03:44:21.139Z,3
2019-01-26T03:47:21.069Z,2.8
2019-01-26T03:50:21.103Z,2.9
2019-01-26T03:53:21.180Z,2.8
2019-01-26T03:56:21.172Z,2.8
2019-01-26T03:59:21.047Z,3.2
2019-01-26T04:02:21.082Z,2.9
2019-01-26T04:05:21.347Z,2.8
2019-01-26T04:08:21.426Z,2.8
2019-01-26T04:11:22.251Z,2.7
2019-01-26T04:14:21.234Z,2.8
2019-01-26T04:17:22.484Z,2.8
2019-01-26T04:20:21.399Z,2.9
2019-01-26T04:23:21.294Z,2.8
2019-01-26T04:26:21.145Z,3
2019-01-26T04:29:21.386Z,2.8
2019-01-26T04:32:21.264Z,2.6
2019-01-26T04:35:21.511Z,2.8
2019-01-26T04:38:21.180Z,2.7
2019-01-26T04:41:21.223Z,2.8
2019-01-26T04:44:21.477Z,2.5
2019-01-26T04:47:21.219Z,2.6
2019-01-26T04:50:21.467Z,2.5
2019-01-26T04:53:21.388Z,2.5
2019-01-26T04:56:21.583Z,2.7
2019-01-26T04:59:21.181Z,2.6
2019-01-26T05:02:21.162Z,2.9
2019-01-26T05:05:21.214Z,2.5
2019-01-26T05:08:21.322Z,2.5
2019-01-26T05:11:21.037Z,2.7
2019-01-26T05:14:21.330Z,2.7
2019-01-26T05:17:23.716Z,2.3
2019-01-26T05:20:21.103Z,2.6
2019-01-26T05:23:21.364Z,2.4
2019-01-26T05:26:21.108Z,2.5
2019-01-26T05:29:24.049Z,2.4
2019-01-26T05:32:21.079Z,2.2
2019-01-26T05:35:21.346Z,2.5
2019-01-26T05:38:21.413Z,2.4
2019-01-26T05:41:21.361Z,2.5
2019-01-26T05:44:21.040Z,2.7
2019-01-26T05:47:23.490Z,2.5
2019-01-26T05:50:21.442Z,3.5
2019-01-26T05:53:21.024Z,2.5
2019-01-26T05:56:21.374Z,2.5
2019-01-26T05:59:21.479Z,2.4
2019-01-26T06:02:21.221Z,2.5
2019-01-26T06:05:21.337Z,2.4
2019-01-26T06:08:23.405Z,2.4
2019-01-26T06:11:25.961Z,2.4
2019-01-26T06:14:21.353Z,2.4
2019-01-26T06:17:21.915Z,2.4
2019-01-26T06:20:24.198Z,2.4
2019-01-26T06:23:21.251Z,2.3
2019-01-26T06:26:21.094Z,2.4
2019-01-26T06:29:21.505Z,2.3
2019-01-26T06:32:21.159Z,2.4
2019-01-26T06:35:22.551Z,2.2
2019-01-26T06:38:21.242Z,2.3
2019-01-26T06:41:21.578Z,2.3
2019-01-26T06:44:21.023Z,2.3
2019-01-26T06:47:24.661Z,2.2
2019-01-26T06:50:21.340Z,2.2
2019-01-26T06:53:21.513Z,2.3
2019-01-26T06:56:21.039Z,2.3
2019-01-26T06:59:21.412Z,2.3
2019-01-26T07:02:21.339Z,2.2
2019-01-26T07:05:21.275Z,2.3
2019-01-26T07:08:21.256Z,2.2
2019-01-26T07:11:21.037Z,2.1
2019-01-26T07:14:21.314Z,2.3
2019-01-26T07:17:21.193Z,2
2019-01-26T07:20:21.058Z,2
2019-01-26T07:23:21.145Z,2.1
2019-01-26T07:26:21.422Z,2.2
2019-01-26T07:29:21.379Z,2.2
2019-01-26T07:32:21.047Z,2.3
2019-01-26T07:35:21.108Z,2
2019-01-26T07:38:21.093Z,2.2
2019-01-26T07:41:21.625Z,2
2019-01-26T07:44:21.065Z,2.1
2019-01-26T07:47:21.050Z,2.3
2019-01-26T07:50:20.904Z,2
2019-01-26T07:53:21.390Z,2.1
2019-01-26T07:56:21.385Z,2.4
2019-01-26T07:59:21.737Z,2
2019-01-26T08:02:24.051Z,2.2
2019-01-26T08:05:21.258Z,2.1
2019-01-26T08:08:21.083Z,2.2
2019-01-26T08:11:21.241Z,2
2019-01-26T08:14:21.168Z,1.9
2019-01-26T08:17:21.544Z,2.1
2019-01-26T08:20:21.291Z,1.9
2019-01-26T08:23:21.489Z,2
2019-01-26T08:26:21.745Z,2
2019-01-26T08:29:21.175Z,2.2
2019-01-26T08:32:22.177Z,1.9
2019-01-26T08:35:20.987Z,1.9
2019-01-26T08:38:24.291Z,1.9
2019-01-26T08:41:21.236Z,2
2019-01-26T08:44:21.669Z,2
2019-01-26T08:47:24.104Z,1.9
2019-01-26T08:50:22.976Z,2.2
2019-01-26T08:53:21.298Z,2
2019-01-26T08:56:21.337Z,1.9
2019-01-26T08:59:21.590Z,1.8
2019-01-26T09:02:26.041Z,2
2019-01-26T09:05:21.888Z,2
2019-01-26T09:08:21.964Z,1.9
2019-01-26T09:11:21.198Z,2
2019-01-26T09:14:21.197Z,1.8
2019-01-26T09:17:21.262Z,2.2
2019-01-26T09:20:21.374Z,2.2
2019-01-26T09:23:21.102Z,2.6
2019-01-26T09:26:21.583Z,2.2
2019-01-26T09:29:21.374Z,2
2019-01-26T09:32:21.419Z,3.7
2019-01-26T09:35:21.510Z,3
2019-01-26T09:38:21.061Z,2.4
2019-01-26T09:41:21.159Z,1.8
2019-01-26T09:44:21.498Z,3.6
2019-01-26T09:47:21.137Z,2
2019-01-26T09:50:20.989Z,2.2
2019-01-26T09:53:21.345Z,2.1
2019-01-26T09:56:20.960Z,2.5
2019-01-26T09:59:21.750Z,2.4
2019-01-26T10:02:21.393Z,1.8
2019-01-26T10:05:21.068Z,2.8
2019-01-26T10:08:21.038Z,4.3
2019-01-26T10:11:21.563Z,2
2019-01-26T10:14:22.656Z,3
2019-01-26T10:17:21.115Z,2.2
2019-01-26T10:20:21.528Z,3.2
2019-01-26T10:23:22.094Z,1.7
2019-01-26T10:26:21.382Z,1.8
2019-01-26T10:29:21.924Z,2.1
2019-01-26T10:32:21.065Z,4.4
2019-01-26T10:35:20.957Z,3.5
2019-01-26T10:38:21.020Z,4.4
2019-01-26T10:41:21.953Z,6.9
2019-01-26T10:44:21.247Z,5
2019-01-26T10:47:21.056Z,6
2019-01-26T10:50:21.244Z,3.5
2019-01-26T10:53:21.352Z,13.6
2019-01-26T10:56:21.284Z,10.5
2019-01-26T10:59:20.851Z,9.1
2019-01-26T11:02:21.329Z,7.3
2019-01-26T11:05:23.159Z,4.4
2019-01-26T11:08:21.787Z,9.2
2019-01-26T11:11:21.013Z,7.1
2019-01-26T11:14:21.902Z,9.1
2019-01-26T11:17:21.320Z,9.4
2019-01-26T11:20:21.202Z,8.9
2019-01-26T11:23:21.244Z,11
2019-01-26T11:26:21.168Z,13.2
2019-01-26T11:29:21.810Z,12.2
2019-01-26T11:32:21.651Z,11.8
2019-01-26T11:35:21.100Z,13.5
2019-01-26T11:38:23.015Z,14.4
2019-01-26T11:41:21.245Z,9.3
2019-01-26T11:44:21.476Z,13.4
2019-01-26T11:47:21.484Z,14.7
2019-01-26T11:50:21.425Z,9.2
2019-01-26T11:53:21.841Z,9.9
2019-01-26T11:56:22.143Z,13.5
2019-01-26T11:59:21.075Z,8.5
2019-01-26T12:02:21.558Z,7.1
2019-01-26T12:05:21.187Z,8
2019-01-26T12:08:21.405Z,7.9
2019-01-26T12:11:21.552Z,6.9
2019-01-26T12:14:21.490Z,9.8
2019-01-26T12:17:21.298Z,6.7
2019-01-26T12:20:21.274Z,10.9
2019-01-26T12:23:21.436Z,4.1
2019-01-26T12:26:21.647Z,6.1
2019-01-26T12:29:20.995Z,5.9
2019-01-26T12:32:22.985Z,5.1
2019-01-26T12:35:21.221Z,8.3
2019-01-26T12:38:21.151Z,5.4
2019-01-26T12:41:23.431Z,9.4
2019-01-26T12:44:20.951Z,5.1
2019-01-26T12:47:21.713Z,5.1
2019-01-26T12:50:20.996Z,3.8
2019-01-26T12:53:21.892Z,5.2
2019-01-26T12:56:20.886Z,5.1
2019-01-26T12:59:21.177Z,4.6
2019-01-26T13:02:21.193Z,9
2019-01-26T13:05:20.948Z,7.5
2019-01-26T13:08:21.360Z,4.3
2019-01-26T13:11:21.162Z,13.1
2019-01-26T13:14:21.122Z,4.6
2019-01-26T13:17:21.429Z,6.9
2019-01-26T13:20:21.147Z,5.4
2019-01-26T13:23:21.363Z,3.9
2019-01-26T13:26:21.222Z,5.2
2019-01-26T13:29:21.300Z,4.6
2019-01-26T13:32:21.499Z,3.9
2019-01-26T13:35:21.415Z,2.8
2019-01-26T13:38:21.868Z,3.1
2019-01-26T13:41:21.417Z,4.6
2019-01-26T13:44:22.262Z,5.9
2019-01-26T13:47:21.248Z,7.4
2019-01-26T13:50:21.501Z,2.2
2019-01-26T13:53:21.179Z,5.2
2019-01-26T13:56:21.482Z,3.5
2019-01-26T13:59:21.033Z,3.5
2019-01-26T14:02:23.058Z,3.3
2019-01-26T14:05:21.478Z,3.9
2019-01-26T14:08:21.754Z,3.1
2019-01-26T14:11:21.500Z,3
2019-01-26T14:14:21.243Z,3.8
2019-01-26T14:17:21.136Z,4.5
2019-01-26T14:20:21.139Z,2.8
2019-01-26T14:23:21.387Z,3.1
2019-01-26T14:26:21.357Z,3.4
2019-01-26T14:29:21.431Z,3.7
2019-01-26T14:32:21.264Z,3.9
2019-01-26T14:35:20.853Z,3.2
2019-01-26T14:38:21.102Z,3.4
2019-01-26T14:41:21.512Z,4
2019-01-26T14:44:21.149Z,4.9
2019-01-26T14:47:21.149Z,2.3
2019-01-26T14:50:21.027Z,2.3
2019-01-26T14:53:21.194Z,2.4
2019-01-26T14:56:21.423Z,3.4
2019-01-26T14:59:20.837Z,2.1
2019-01-26T15:02:20.860Z,2.5
2019-01-26T15:05:20.858Z,2.6
2019-01-26T15:08:20.886Z,2.5
2019-01-26T15:11:21.190Z,3.8
2019-01-26T15:14:20.966Z,2.5
2019-01-26T15:17:20.825Z,3.4
2019-01-26T15:20:24.086Z,2.5
2019-01-26T15:23:22.622Z,2.5
2019-01-26T15:26:21.324Z,2.2
2019-01-26T15:29:21.149Z,2
2019-01-26T15:32:21.097Z,3.5
2019-01-26T15:35:21.013Z,3.1
2019-01-26T15:38:21.379Z,3.9
2019-01-26T15:41:20.789Z,2.3
2019-01-26T15:44:21.981Z,3
2019-01-26T15:47:21.130Z,3.7
2019-01-26T15:50:21.858Z,2.3
2019-01-26T15:53:21.645Z,3.8
2019-01-26T15:56:21.194Z,6.5
2019-01-26T15:59:21.903Z,3.8
2019-01-26T16:02:21.213Z,4.8
2019-01-26T16:05:21.257Z,2.7
2019-01-26T16:08:22.755Z,4.3
2019-01-26T16:11:21.566Z,2.1
2019-01-26T16:14:21.081Z,2
2019-01-26T16:17:21.344Z,2.3
2019-01-26T16:20:20.943Z,2.3
2019-01-26T16:23:21.344Z,2.2
2019-01-26T16:26:21.296Z,2.3
2019-01-26T16:29:21.079Z,1.9
2019-01-26T16:32:20.849Z,3.5
2019-01-26T16:35:21.023Z,4.4
2019-01-26T16:38:21.079Z,2.6
2019-01-26T16:41:21.548Z,2
2019-01-26T16:44:21.270Z,2.2
2019-01-26T16:47:21.012Z,2.4
2019-01-26T16:50:28.397Z,2.7
2019-01-26T16:53:20.992Z,4.3
2019-01-26T16:56:21.183Z,2
2019-01-26T16:59:20.959Z,3.7
2019-01-26T17:02:21.503Z,2.4
2019-01-26T17:05:26.364Z,3.8
2019-01-26T17:08:21.303Z,3.6
2019-01-26T17:11:20.886Z,2.1
2019-01-26T17:14:21.607Z,2.2
2019-01-26T17:17:21.277Z,3.1
2019-01-26T17:20:21.584Z,2.8
2019-01-26T17:23:21.569Z,2
2019-01-26T17:26:21.029Z,3
2019-01-26T17:29:21.162Z,2.7
2019-01-26T17:32:21.388Z,2.4
2019-01-26T17:35:21.904Z,2
2019-01-26T17:38:21.193Z,2
2019-01-26T17:41:21.488Z,2.3
2019-01-26T17:44:21.316Z,2.5
2019-01-26T17:47:21.569Z,2.1
2019-01-26T17:50:21.014Z,1.9
2019-01-26T17:53:21.294Z,2.3
2019-01-26T17:56:21.488Z,2
2019-01-26T17:59:20.974Z,2
2019-01-26T18:02:21.431Z,2.1
2019-01-26T18:05:20.868Z,2.1
2019-01-26T18:08:22.226Z,2.2
2019-01-26T18:11:21.130Z,2.7
2019-01-26T18:14:21.040Z,2.1
2019-01-26T18:17:20.965Z,2.4
2019-01-26T18:20:21.571Z,2.1
2019-01-26T18:23:21.289Z,2.1
2019-01-26T18:26:20.857Z,2.2
2019-01-26T18:29:21.315Z,1.9
2019-01-26T18:32:21.428Z,2.1
2019-01-26T18:35:21.830Z,2.1
2019-01-26T18:38:21.726Z,2.1
2019-01-26T18:41:20.908Z,2.1
2019-01-26T18:44:21.323Z,2.1
2019-01-26T18:47:22.026Z,1.9
2019-01-26T18:50:22.728Z,2.5
2019-01-26T18:53:21.064Z,1.9
2019-01-26T18:56:22.604Z,2.1
2019-01-26T18:59:21.290Z,2
2019-01-26T19:02:20.906Z,1.9
2019-01-26T19:05:21.539Z,2.5
2019-01-26T19:08:20.664Z,2.2
2019-01-26T19:11:22.405Z,2
2019-01-26T19:14:20.936Z,2.3
2019-01-26T19:17:21.462Z,1.9
2019-01-26T19:20:21.047Z,1.9
2019-01-26T19:23:21.543Z,1.9
2019-01-26T19:26:21.446Z,2.1
2019-01-26T19:29:23.517Z,2.1
2019-01-26T19:32:21.544Z,2.3
2019-01-26T19:35:21.481Z,2.9
2019-01-26T19:38:21.389Z,2.4
2019-01-26T19:41:21.990Z,2.6
2019-01-26T19:44:22.637Z,4.1
2019-01-26T19:47:20.898Z,2.6
2019-01-26T19:50:20.898Z,2.1
2019-01-26T19:53:20.881Z,2.1
2019-01-26T19:56:20.882Z,2.1
2019-01-26T19:59:20.887Z,2.6
2019-01-26T20:02:21.285Z,2.7
2019-01-26T20:05:21.272Z,2.6
2019-01-26T20:08:20.909Z,2.2
2019-01-26T20:11:21.829Z,2.4
2019-01-26T20:14:21.238Z,2.1
2019-01-26T20:17:20.971Z,2.5
2019-01-26T20:20:20.968Z,2.2
2019-01-26T20:23:21.349Z,2.2
2019-01-26T20:26:21.550Z,3.5
2019-01-26T20:29:21.966Z,5.7
2019-01-26T20:32:21.291Z,2.4
2019-01-26T20:35:22.706Z,2.2
2019-01-26T20:38:21.101Z,2.1
2019-01-26T20:41:20.777Z,2.1
2019-01-26T20:44:21.052Z,3.8
2019-01-26T20:47:20.970Z,4.3
2019-01-26T20:50:20.865Z,2.2
2019-01-26T20:53:22.876Z,2
2019-01-26T20:56:21.029Z,2.8
2019-01-26T20:59:21.002Z,2.6
2019-01-26T21:02:20.957Z,2.5
2019-01-26T21:05:21.532Z,2.3
2019-01-26T21:08:21.453Z,2.1
2019-01-26T21:11:21.258Z,2.2
2019-01-26T21:14:20.584Z,2.6
2019-01-26T21:17:21.236Z,2.1
2019-01-26T21:20:21.001Z,2.1
2019-01-26T21:23:20.994Z,2.1
2019-01-26T21:26:21.512Z,2.3
2019-01-26T21:29:20.962Z,2.3
2019-01-26T21:32:21.529Z,2.3
2019-01-26T21:35:21.210Z,2.4
2019-01-26T21:38:20.931Z,2.9
2019-01-26T21:41:20.939Z,2.1
2019-01-26T21:44:20.838Z,2.5
2019-01-26T21:47:21.159Z,2.5
2019-01-26T21:50:21.163Z,3.8
2019-01-26T21:53:20.904Z,2.9
2019-01-26T21:56:21.388Z,2.3
2019-01-26T21:59:21.023Z,2.3
2019-01-26T22:02:21.588Z,2.5
2019-01-26T22:05:20.990Z,2.2
2019-01-26T22:08:21.300Z,2.1
2019-01-26T22:11:21.230Z,3.2
2019-01-26T22:14:21.224Z,2.3
2019-01-26T22:17:20.993Z,2.5
2019-01-26T22:20:20.975Z,2.2
2019-01-26T22:23:21.355Z,2.5
2019-01-26T22:26:21.331Z,2.3
2019-01-26T22:29:20.948Z,2.5
2019-01-26T22:32:22.727Z,2.2
2019-01-26T22:35:22.387Z,2.3
2019-01-26T22:38:20.898Z,2.3
2019-01-26T22:41:20.903Z,2.3
2019-01-26T22:44:21.137Z,2.2
2019-01-26T22:47:21.232Z,2.2
2019-01-26T22:50:21.130Z,2.2
2019-01-26T22:53:21.784Z,2.4
2019-01-26T22:56:20.727Z,3.2
2019-01-26T22:59:20.801Z,2
2019-01-26T23:02:21.360Z,2.2
2019-01-26T23:05:20.746Z,2.1
2019-01-26T23:08:20.854Z,2.3
2019-01-26T23:11:20.960Z,2.1
2019-01-26T23:14:21.211Z,2.2
2019-01-26T23:17:21.070Z,1.8
2019-01-26T23:20:21.279Z,2
2019-01-26T23:23:21.189Z,2.1
2019-01-26T23:26:21.259Z,2.5
2019-01-26T23:29:21.151Z,2
2019-01-26T23:32:20.901Z,1.9
2019-01-26T23:35:21.497Z,1.9
2019-01-26T23:38:20.719Z,2.2
2019-01-26T23:41:21.183Z,1.9
2019-01-26T23:44:21.232Z,2
2019-01-26T23:47:20.787Z,2
2019-01-26T23:50:21.033Z,2.1
2019-01-26T23:53:20.910Z,1.9
2019-01-26T23:56:21.103Z,2.1
2019-01-26T23:59:21.052Z,2.1
